Santa Genoveva Airport
SBGO : rendu visible

Aérodrome :











RETROUVEZ-NOUS SUR...

 
LOGIN :

S'inscrire | Disclaimer

   EN    FR    IT 

 









Légende :    VFR   VFR Marginal   IFR   IFR Intensif   IFR Très Intensif
Visi : 
Plafond : 
>= 8 km
>= 3000ft
5 à 8 km
1000 à 3000 ft
1500m à 5 km
500 à 1000 ft
800 à 1500m
200 à 500 ft
< 800m
< 200 ft
Symboles :   Orages  Brouillard  Fortes neiges  Fortes précipitations  Vent > 20 kt






- Altitude de l'aérodrome : 2450 ft
- Code IATA : GYN


SBGO - Santa Genoveva

DERNIER METAR :
  • 040800Z 35005KT 320V030 9999 SCT040 BKN090 22/21 Q1013

METARs EXPIRÉS :
  • 040700Z 34004KT 9999 SCT040 BKN080 23/21 Q1014
  • 040600Z 34003KT 9999 -RA SCT040 BKN080 23/22 Q1014

TAF TAF SBGO
Valide du 04 à 06h jusqu'au 05 à 06h UTC


040300Z 0406/0506 32006KT 9999 FEW035 TN23/0409Z TX31/0418Z
PROB40
TEMPO 0417/0421 VCTS BKN030 FEW035CB RMK PEB



MET'MAP, la Météo Aéronautique d'un coup d'oeil ! - Copyright ORBIFLY Décembre 2007 - Disclaimer

ORBIFLY MET'MAP TEAM :

Programmation & Développement : Alexandra Zaïnal
Sur une idée originale de : Baudouin d'Aumeries
Assistance à la programmation : Marc-Olivier Méhu
Soutien technique & logistique : Manuel Goepfert

Contact : metmap@orbifly.com




SOURCES & CREDITS :

   NOAA       Earth
Advisory